createdAt,value
2022-10-02T00:02:26.049Z,24.30
2022-10-02T00:05:19.002Z,24.30
2022-10-02T00:08:15.005Z,24.30
2022-10-02T00:10:56.440Z,26.30
2022-10-02T00:13:31.487Z,24.30
2022-10-02T00:15:58.461Z,24.30
2022-10-02T00:18:34.452Z,24.30
2022-10-02T00:21:26.725Z,24.30
2022-10-02T00:24:01.629Z,24.30
2022-10-02T00:26:57.144Z,24.30
2022-10-02T00:29:43.401Z,24.30
2022-10-02T00:32:51.554Z,24.30
2022-10-02T00:35:27.349Z,24.30
2022-10-02T00:38:10.895Z,24.20
2022-10-02T00:40:49.595Z,24.30
2022-10-02T00:43:40.432Z,24.30
2022-10-02T00:46:27.564Z,24.20
2022-10-02T00:49:33.158Z,24.30
2022-10-02T00:52:29.457Z,23.70
2022-10-02T00:55:33.907Z,24.30
2022-10-02T00:58:15.743Z,24.20
2022-10-02T01:01:03.779Z,24.20
2022-10-02T01:03:39.569Z,24.20
2022-10-02T01:06:10.888Z,24.20
2022-10-02T01:08:38.510Z,24.20
2022-10-02T01:11:07.643Z,24.20
2022-10-02T01:13:34.760Z,24.20
2022-10-02T01:16:03.164Z,24.20
2022-10-02T01:18:31.066Z,24.20
2022-10-02T01:21:07.795Z,24.20
2022-10-02T01:24:25.345Z,24.20
2022-10-02T01:26:52.282Z,24.20
2022-10-02T01:29:22.197Z,24.20
2022-10-02T01:31:49.146Z,24.20
2022-10-02T01:34:16.214Z,24.20
2022-10-02T01:36:44.148Z,24.20
2022-10-02T01:39:11.442Z,24.10
2022-10-02T01:41:46.724Z,24.20
2022-10-02T01:44:15.871Z,24.20
2022-10-02T01:47:26.476Z,24.20
2022-10-02T01:50:19.308Z,24.20
2022-10-02T01:52:56.119Z,24.20
2022-10-02T01:55:50.482Z,24.20
2022-10-02T01:58:52.568Z,24.20
2022-10-02T02:02:04.907Z,24.20
2022-10-02T02:04:46.076Z,24.20
2022-10-02T02:07:25.885Z,24.20
2022-10-02T02:10:04.284Z,24.20
2022-10-02T02:12:40.031Z,24.20
2022-10-02T02:15:28.414Z,24.20
2022-10-02T02:18:12.618Z,24.20
2022-10-02T02:20:48.403Z,24.20
2022-10-02T02:23:22.300Z,24.20
2022-10-02T02:25:57.352Z,24.20
2022-10-02T02:28:27.189Z,24.20
2022-10-02T02:30:56.880Z,24.10
2022-10-02T02:33:54.007Z,24.20
2022-10-02T02:36:27.025Z,24.20
2022-10-02T02:39:03.141Z,24.20
2022-10-02T02:41:51.689Z,24.20
2022-10-02T02:44:33.909Z,24.20
2022-10-02T02:47:21.020Z,24.20
2022-10-02T02:50:22.343Z,24.20
2022-10-02T02:53:13.915Z,24.20
2022-10-02T02:56:00.727Z,24.20
2022-10-02T02:58:30.477Z,24.20
2022-10-02T03:00:57.453Z,24.20
2022-10-02T03:03:24.610Z,24.20
2022-10-02T03:06:06.247Z,24.10
2022-10-02T03:08:37.606Z,24.10
2022-10-02T03:11:16.335Z,24.10
2022-10-02T03:14:24.487Z,24.20
2022-10-02T03:17:03.114Z,24.10
2022-10-02T03:19:49.741Z,24.20
2022-10-02T03:22:31.403Z,24.20
2022-10-02T03:25:31.755Z,24.20
2022-10-02T03:28:07.868Z,24.20
2022-10-02T03:30:38.380Z,24.10
2022-10-02T03:33:09.449Z,24.20
2022-10-02T03:35:37.899Z,24.10
2022-10-02T03:38:07.835Z,24.10
2022-10-02T03:40:34.692Z,24.10
2022-10-02T03:43:02.052Z,24.10
2022-10-02T03:45:52.288Z,24.10
2022-10-02T03:48:17.668Z,24.30
2022-10-02T03:50:45.448Z,24.10
2022-10-02T03:53:23.242Z,24.10
2022-10-02T03:56:05.062Z,24.10
2022-10-02T03:58:33.900Z,24.20
2022-10-02T04:01:25.770Z,24.10
2022-10-02T04:04:17.731Z,24.20
2022-10-02T04:06:56.915Z,24.10
2022-10-02T04:09:36.101Z,24.10
2022-10-02T04:12:33.016Z,24.10
2022-10-02T04:15:35.692Z,24.10
2022-10-02T04:18:24.120Z,24.10
2022-10-02T04:21:25.710Z,24.10
2022-10-02T04:24:17.872Z,24.10
2022-10-02T04:27:02.368Z,24.10
2022-10-02T04:29:45.082Z,24.10
2022-10-02T04:32:33.629Z,24.10
2022-10-02T04:35:02.736Z,24.10
2022-10-02T04:38:02.454Z,24.10
2022-10-02T04:41:02.714Z,24.10
2022-10-02T04:44:09.862Z,24.20
2022-10-02T04:47:30.623Z,24.10
2022-10-02T04:50:03.021Z,24.10
2022-10-02T04:53:16.423Z,24.10
2022-10-02T04:56:08.552Z,24.10
2022-10-02T04:59:14.433Z,24.20
2022-10-02T05:01:59.060Z,24.20
2022-10-02T05:05:09.931Z,24.10
2022-10-02T05:07:55.684Z,24.10
2022-10-02T05:11:28.028Z,24.10
2022-10-02T05:14:18.432Z,24.10
2022-10-02T05:17:21.174Z,24.10
2022-10-02T05:20:28.120Z,24.10
2022-10-02T05:23:12.731Z,24.10
2022-10-02T05:25:42.691Z,24.10
2022-10-02T05:28:44.811Z,24.10
2022-10-02T05:31:39.563Z,24.10
2022-10-02T05:34:41.653Z,24.10
2022-10-02T05:37:52.365Z,24.10
2022-10-02T05:40:31.452Z,24.10
2022-10-02T05:43:26.070Z,24.10
2022-10-02T05:45:59.048Z,24.10
2022-10-02T05:48:49.887Z,24.10
2022-10-02T05:51:37.023Z,24.10
2022-10-02T05:54:27.531Z,24.10
2022-10-02T05:57:36.838Z,24.10
2022-10-02T06:00:28.512Z,24.10
2022-10-02T06:03:23.093Z,24.10
2022-10-02T06:06:00.247Z,24.10
2022-10-02T06:08:48.413Z,24.10
2022-10-02T06:11:35.933Z,24.10
2022-10-02T06:14:24.536Z,24.10
2022-10-02T06:17:05.414Z,24.10
2022-10-02T06:20:12.610Z,24.10
2022-10-02T06:23:07.850Z,24.10
2022-10-02T06:25:44.592Z,24.10
2022-10-02T06:28:38.103Z,24.10
2022-10-02T06:31:13.873Z,24.10
2022-10-02T06:33:41.447Z,24.10
2022-10-02T06:36:36.394Z,24.10
2022-10-02T06:39:36.994Z,24.10
2022-10-02T06:42:33.389Z,24.10
2022-10-02T06:45:33.097Z,24.10
2022-10-02T06:48:40.964Z,24.10
2022-10-02T06:51:28.612Z,24.10
2022-10-02T06:54:01.359Z,26.70
2022-10-02T06:57:21.691Z,24.10
2022-10-02T07:00:08.773Z,24.10
2022-10-02T07:02:53.306Z,24.10
2022-10-02T07:05:35.095Z,24.10
2022-10-02T07:08:18.733Z,24.10
2022-10-02T07:11:04.497Z,24.20
2022-10-02T07:14:09.428Z,24.10
2022-10-02T07:16:57.832Z,24.10
2022-10-02T07:19:27.708Z,24.20
2022-10-02T07:22:44.058Z,24.10
2022-10-02T07:25:58.168Z,24.20
2022-10-02T07:28:47.702Z,24.20
2022-10-02T07:31:26.583Z,24.20
2022-10-02T07:34:25.753Z,24.20
2022-10-02T07:37:20.663Z,24.20
2022-10-02T07:40:10.763Z,24.20
2022-10-02T07:42:59.601Z,24.10
2022-10-02T07:45:37.578Z,24.20
2022-10-02T07:48:34.390Z,24.20
2022-10-02T07:51:53.750Z,24.20
2022-10-02T07:54:52.471Z,24.20
2022-10-02T07:57:52.067Z,24.30
2022-10-02T08:00:24.039Z,24.30
2022-10-02T08:03:15.774Z,24.30
2022-10-02T08:05:58.505Z,24.30
2022-10-02T08:08:39.147Z,24.30
2022-10-02T08:11:23.504Z,24.20
2022-10-02T08:14:06.609Z,24.30
2022-10-02T08:16:57.332Z,24.30
2022-10-02T08:19:48.431Z,24.30
2022-10-02T08:22:29.650Z,24.40
2022-10-02T08:25:13.620Z,24.30
2022-10-02T08:28:07.657Z,24.30
2022-10-02T08:30:34.815Z,24.30
2022-10-02T08:33:15.735Z,24.30
2022-10-02T08:36:19.059Z,24.30
2022-10-02T08:38:54.655Z,24.30
2022-10-02T08:41:42.708Z,24.30
2022-10-02T08:44:39.932Z,24.30
2022-10-02T08:47:28.804Z,24.20
2022-10-02T08:50:20.064Z,24.30
2022-10-02T08:53:44.369Z,24.30
2022-10-02T08:56:26.371Z,24.30
2022-10-02T08:59:21.283Z,24.30
2022-10-02T09:02:27.559Z,24.30
2022-10-02T09:05:56.065Z,24.30
2022-10-02T09:08:59.600Z,24.30
2022-10-02T09:12:06.439Z,24.30
2022-10-02T09:14:59.039Z,24.30
2022-10-02T09:17:34.803Z,24.30
2022-10-02T09:20:33.633Z,24.30
2022-10-02T09:23:41.002Z,24.30
2022-10-02T09:26:34.357Z,24.30
2022-10-02T09:29:42.280Z,24.30
2022-10-02T09:32:57.610Z,24.40
2022-10-02T09:36:09.131Z,24.30
2022-10-02T09:39:12.063Z,24.30
2022-10-02T09:42:20.239Z,24.30
2022-10-02T09:45:24.413Z,24.40
2022-10-02T09:48:21.691Z,24.40
2022-10-02T09:51:29.901Z,24.40
2022-10-02T09:54:07.267Z,24.30
2022-10-02T09:57:47.422Z,24.30
2022-10-02T10:00:17.022Z,27.70
2022-10-02T10:03:02.054Z,24.40
2022-10-02T10:06:06.545Z,24.40
2022-10-02T10:09:07.321Z,24.40
2022-10-02T10:12:05.515Z,24.40
2022-10-02T10:15:01.553Z,24.40
2022-10-02T10:18:04.283Z,24.40
2022-10-02T10:21:34.399Z,24.50
2022-10-02T10:25:01.617Z,24.50
2022-10-02T10:28:03.049Z,24.50
2022-10-02T10:31:15.952Z,24.60
2022-10-02T10:34:23.549Z,24.60
2022-10-02T10:37:26.230Z,24.70
2022-10-02T10:40:40.755Z,27.10
2022-10-02T10:43:27.296Z,24.80
2022-10-02T10:46:31.323Z,24.90
2022-10-02T10:49:31.813Z,24.80
2022-10-02T10:52:36.140Z,25.10
2022-10-02T10:55:46.154Z,25.10
2022-10-02T10:58:39.719Z,25.20
2022-10-02T11:01:26.906Z,25.40
2022-10-02T11:04:18.647Z,25.60
2022-10-02T11:07:48.755Z,25.80
2022-10-02T11:10:27.694Z,26.10
2022-10-02T11:13:31.039Z,26.20
2022-10-02T11:16:12.977Z,26.40
2022-10-02T11:19:21.241Z,26.50
2022-10-02T11:22:33.416Z,26.60
2022-10-02T11:25:28.471Z,26.70
2022-10-02T11:28:35.738Z,26.80
2022-10-02T11:31:21.971Z,26.80
2022-10-02T11:34:36.363Z,26.80
2022-10-02T11:37:39.823Z,26.80
2022-10-02T11:40:39.083Z,26.80
2022-10-02T11:43:46.717Z,26.60
2022-10-02T11:46:44.329Z,27.00
2022-10-02T11:49:39.047Z,27.00
2022-10-02T11:52:14.795Z,27.00
2022-10-02T11:55:15.048Z,27.00
2022-10-02T11:58:21.621Z,27.00
2022-10-02T12:01:06.388Z,27.00
2022-10-02T12:04:28.517Z,27.10
2022-10-02T12:07:28.890Z,27.10
2022-10-02T12:09:58.613Z,27.20
2022-10-02T12:12:51.584Z,27.20
2022-10-02T12:15:48.132Z,27.30
2022-10-02T12:19:03.506Z,27.40
2022-10-02T12:22:18.823Z,27.40
2022-10-02T12:25:53.344Z,27.50
2022-10-02T12:28:56.084Z,27.50
2022-10-02T12:32:15.377Z,27.40
2022-10-02T12:35:03.186Z,27.40
2022-10-02T12:38:10.115Z,27.30
2022-10-02T12:41:08.639Z,27.20
2022-10-02T12:44:18.535Z,27.10
2022-10-02T12:47:46.157Z,27.10
2022-10-02T12:50:54.634Z,27.00
2022-10-02T12:54:07.771Z,26.90
2022-10-02T12:57:08.559Z,26.60
2022-10-02T13:00:11.721Z,26.70
2022-10-02T13:03:02.045Z,26.50
2022-10-02T13:05:52.433Z,26.50
2022-10-02T13:08:25.037Z,26.40
2022-10-02T13:11:34.486Z,26.40
2022-10-02T13:14:29.034Z,26.30
2022-10-02T13:17:26.445Z,26.20
2022-10-02T13:20:28.543Z,26.20
2022-10-02T13:23:15.889Z,26.10
2022-10-02T13:26:21.275Z,26.10
2022-10-02T13:28:49.289Z,26.10
2022-10-02T13:31:55.180Z,26.00
2022-10-02T13:34:54.264Z,26.00
2022-10-02T13:38:01.053Z,26.00
2022-10-02T13:40:44.397Z,25.90
2022-10-02T13:43:55.233Z,25.90
2022-10-02T13:47:17.394Z,25.90
2022-10-02T13:50:29.411Z,25.90
2022-10-02T13:53:05.217Z,25.80
2022-10-02T13:55:41.658Z,25.80
2022-10-02T13:58:42.589Z,25.70
2022-10-02T14:01:25.471Z,25.80
2022-10-02T14:04:37.653Z,25.70
2022-10-02T14:07:43.640Z,25.70
2022-10-02T14:10:37.055Z,25.70
2022-10-02T14:13:23.240Z,25.70
2022-10-02T14:16:25.655Z,25.70
2022-10-02T14:19:31.941Z,25.70
2022-10-02T14:22:16.599Z,25.70
2022-10-02T14:25:18.749Z,25.70
2022-10-02T14:28:15.229Z,25.70
2022-10-02T14:31:09.913Z,25.70
2022-10-02T14:34:07.577Z,25.70
2022-10-02T14:37:31.751Z,25.70
2022-10-02T14:40:03.249Z,25.70
2022-10-02T14:43:25.396Z,25.60
2022-10-02T14:46:38.071Z,25.60
2022-10-02T14:49:48.355Z,25.70
2022-10-02T14:53:04.030Z,25.60
2022-10-02T14:55:49.522Z,25.60
2022-10-02T14:58:47.643Z,25.60
2022-10-02T15:01:23.920Z,25.60
2022-10-02T15:04:31.785Z,25.70
2022-10-02T15:07:20.577Z,25.60
2022-10-02T15:10:16.714Z,25.60
2022-10-02T15:13:10.307Z,25.60
2022-10-02T15:16:32.399Z,25.60
2022-10-02T15:19:49.741Z,25.60
2022-10-02T15:22:27.603Z,25.60
2022-10-02T15:25:17.621Z,25.60
2022-10-02T15:28:35.706Z,25.50
2022-10-02T15:32:04.878Z,25.50
2022-10-02T15:35:19.509Z,25.50
2022-10-02T15:38:26.585Z,25.50
2022-10-02T15:41:12.074Z,25.60
2022-10-02T15:44:29.113Z,25.50
2022-10-02T15:47:52.400Z,25.50
2022-10-02T15:51:05.504Z,25.50
2022-10-02T15:53:53.476Z,25.50
2022-10-02T15:56:37.189Z,25.30
2022-10-02T15:59:35.049Z,25.50
2022-10-02T16:02:57.293Z,25.40
2022-10-02T16:05:59.877Z,25.40
2022-10-02T16:09:01.899Z,25.40
2022-10-02T16:11:52.677Z,25.40
2022-10-02T16:14:52.810Z,25.40
2022-10-02T16:17:31.715Z,25.40
2022-10-02T16:20:57.138Z,25.30
2022-10-02T16:24:17.426Z,25.30
2022-10-02T16:27:32.709Z,25.30
2022-10-02T16:30:15.246Z,25.30
2022-10-02T16:33:18.202Z,25.30
2022-10-02T16:36:10.595Z,25.30
2022-10-02T16:38:52.058Z,25.30
2022-10-02T16:41:28.170Z,25.30
2022-10-02T16:44:27.556Z,25.30
2022-10-02T16:47:28.688Z,25.20
2022-10-02T16:50:14.524Z,25.30
2022-10-02T16:53:11.916Z,25.30
2022-10-02T16:55:50.870Z,25.30
2022-10-02T16:58:41.677Z,25.20
2022-10-02T17:01:33.554Z,25.20
2022-10-02T17:04:31.091Z,25.20
2022-10-02T17:07:17.817Z,25.20
2022-10-02T17:09:58.943Z,25.20
2022-10-02T17:12:55.888Z,25.20
2022-10-02T17:15:34.849Z,25.20
2022-10-02T17:18:17.596Z,25.20
2022-10-02T17:20:53.253Z,25.20
2022-10-02T17:23:54.022Z,25.20
2022-10-02T17:26:41.894Z,25.20
2022-10-02T17:30:12.404Z,25.10
2022-10-02T17:32:51.153Z,25.20
2022-10-02T17:35:24.149Z,25.10
2022-10-02T17:38:44.343Z,25.20
2022-10-02T17:42:03.069Z,25.10
2022-10-02T17:45:09.261Z,25.10
2022-10-02T17:48:32.843Z,25.10
2022-10-02T17:51:30.996Z,25.10
2022-10-02T17:54:58.357Z,25.10
2022-10-02T17:58:13.834Z,25.10
2022-10-02T18:00:54.813Z,25.10
2022-10-02T18:03:38.420Z,25.00
2022-10-02T18:06:43.551Z,25.00
2022-10-02T18:09:51.991Z,25.00
2022-10-02T18:13:11.715Z,25.00
2022-10-02T18:16:27.610Z,25.00
2022-10-02T18:19:16.297Z,25.00
2022-10-02T18:22:21.067Z,25.00
2022-10-02T18:25:12.455Z,25.00
2022-10-02T18:28:19.886Z,25.00
2022-10-02T18:31:13.485Z,25.00
2022-10-02T18:34:06.795Z,25.00
2022-10-02T18:37:04.314Z,25.00
2022-10-02T18:39:50.995Z,25.00
2022-10-02T18:42:40.963Z,24.90
2022-10-02T18:45:43.755Z,25.00
2022-10-02T18:49:08.845Z,25.00
2022-10-02T18:52:23.061Z,24.90
2022-10-02T18:55:15.560Z,24.90
2022-10-02T18:57:52.695Z,24.90
2022-10-02T19:00:47.339Z,24.90
2022-10-02T19:03:44.781Z,24.90
2022-10-02T19:06:20.243Z,24.90
2022-10-02T19:09:08.596Z,24.90
2022-10-02T19:11:46.263Z,24.90
2022-10-02T19:14:34.250Z,24.80
2022-10-02T19:17:08.560Z,24.80
2022-10-02T19:19:36.830Z,24.80
2022-10-02T19:22:23.585Z,24.80
2022-10-02T19:25:07.132Z,24.80
2022-10-02T19:27:37.876Z,24.80
2022-10-02T19:30:21.598Z,24.80
2022-10-02T19:32:51.968Z,24.80
2022-10-02T19:35:33.674Z,24.80
2022-10-02T19:38:38.471Z,24.80
2022-10-02T19:41:14.176Z,24.80
2022-10-02T19:44:00.718Z,24.80
2022-10-02T19:46:37.325Z,24.80
2022-10-02T19:49:07.241Z,24.80
2022-10-02T19:51:47.995Z,24.60
2022-10-02T19:54:36.003Z,24.70
2022-10-02T19:57:18.038Z,24.80
2022-10-02T19:59:52.267Z,24.80
2022-10-02T20:02:32.542Z,24.70
2022-10-02T20:05:03.780Z,24.70
2022-10-02T20:07:36.097Z,24.70
2022-10-02T20:11:01.504Z,24.70
2022-10-02T20:13:59.016Z,24.70
2022-10-02T20:16:45.050Z,24.70
2022-10-02T20:19:30.585Z,24.70
2022-10-02T20:22:25.016Z,24.70
2022-10-02T20:25:03.685Z,24.70
2022-10-02T20:27:58.358Z,24.70
2022-10-02T20:31:00.221Z,24.70
2022-10-02T20:33:59.268Z,24.70
2022-10-02T20:36:58.254Z,24.70
2022-10-02T20:39:35.842Z,24.70
2022-10-02T20:42:31.236Z,24.60
2022-10-02T20:44:58.226Z,24.70
2022-10-02T20:47:43.565Z,24.60
2022-10-02T20:50:40.595Z,24.60
2022-10-02T20:53:28.965Z,24.60
2022-10-02T20:56:16.798Z,24.60
2022-10-02T20:59:17.512Z,24.60
2022-10-02T21:02:23.732Z,24.70
2022-10-02T21:05:31.277Z,24.60
2022-10-02T21:08:26.843Z,24.60
2022-10-02T21:11:19.876Z,24.50
2022-10-02T21:14:33.343Z,24.60
2022-10-02T21:17:33.877Z,24.50
2022-10-02T21:20:51.174Z,24.60
2022-10-02T21:23:52.313Z,24.60
2022-10-02T21:26:39.500Z,24.50
2022-10-02T21:29:29.880Z,24.50
2022-10-02T21:32:33.619Z,24.50
2022-10-02T21:35:31.226Z,24.50
2022-10-02T21:38:53.512Z,24.50
2022-10-02T21:41:57.078Z,24.50
2022-10-02T21:45:04.665Z,24.50
2022-10-02T21:47:43.840Z,24.50
2022-10-02T21:51:06.858Z,24.50
2022-10-02T21:54:01.299Z,24.50
2022-10-02T21:56:52.270Z,24.50
2022-10-02T21:59:59.599Z,24.40
2022-10-02T22:02:51.031Z,24.40
2022-10-02T22:05:27.397Z,24.40
2022-10-02T22:08:37.039Z,24.40
2022-10-02T22:11:33.439Z,24.40
2022-10-02T22:14:38.303Z,24.40
2022-10-02T22:17:42.940Z,24.80
2022-10-02T22:20:22.569Z,24.40
2022-10-02T22:23:38.319Z,24.40
2022-10-02T22:26:52.311Z,24.40
2022-10-02T22:29:28.263Z,24.40
2022-10-02T22:33:03.280Z,24.40
2022-10-02T22:36:03.884Z,24.40
2022-10-02T22:38:36.184Z,24.40
2022-10-02T22:41:17.813Z,24.40
2022-10-02T22:44:02.303Z,24.40
2022-10-02T22:47:01.152Z,24.40
2022-10-02T22:49:51.412Z,24.40
2022-10-02T22:52:52.564Z,24.40
2022-10-02T22:55:34.011Z,24.30
2022-10-02T22:58:15.076Z,24.40
2022-10-02T23:01:19.254Z,24.30
2022-10-02T23:03:46.576Z,24.30
2022-10-02T23:06:31.397Z,24.30
2022-10-02T23:09:17.813Z,24.30
2022-10-02T23:12:11.049Z,24.30
2022-10-02T23:15:03.143Z,24.30
2022-10-02T23:17:45.716Z,24.20
2022-10-02T23:20:29.382Z,24.30
2022-10-02T23:23:20.318Z,24.30
2022-10-02T23:26:00.321Z,24.30
2022-10-02T23:28:53.217Z,24.20
2022-10-02T23:31:33.032Z,24.30
2022-10-02T23:34:39.875Z,24.20
2022-10-02T23:37:26.166Z,24.20
2022-10-02T23:40:44.706Z,24.30
2022-10-02T23:43:24.140Z,24.20
2022-10-02T23:46:15.011Z,24.20
2022-10-02T23:48:43.040Z,24.20
2022-10-02T23:52:03.798Z,24.20
2022-10-02T23:54:53.834Z,24.30
2022-10-02T23:57:29.814Z,24.10
